createdAt,value
2023-03-18T00:01:04.028Z,0.00
2023-03-18T00:03:32.349Z,-0.51
2023-03-18T00:06:16.761Z,-0.36
2023-03-18T00:08:46.158Z,-0.09
2023-03-18T00:11:15.665Z,0.51
2023-03-18T00:13:43.641Z,0.31
2023-03-18T00:16:12.131Z,0.33
2023-03-18T00:18:40.396Z,-0.21
2023-03-18T00:21:08.512Z,-0.14
2023-03-18T00:23:37.163Z,0.24
2023-03-18T00:26:05.121Z,0.20
2023-03-18T00:28:32.851Z,-0.44
2023-03-18T00:31:08.697Z,-0.87
2023-03-18T00:33:40.693Z,-0.19
2023-03-18T00:36:10.353Z,-0.11
2023-03-18T00:38:38.174Z,0.03
2023-03-18T00:41:11.805Z,0.16
2023-03-18T00:43:49.284Z,-0.31
2023-03-18T00:46:27.486Z,-0.85
2023-03-18T00:48:56.733Z,-0.28
2023-03-18T00:51:25.926Z,-0.01
2023-03-18T00:53:55.923Z,-0.24
2023-03-18T00:56:25.612Z,-0.54
2023-03-18T00:58:53.901Z,-0.83
2023-03-18T01:01:22.496Z,-0.21
2023-03-18T01:03:50.533Z,-0.06
2023-03-18T01:06:22.639Z,-0.34
2023-03-18T01:08:50.514Z,-0.36
2023-03-18T01:11:18.586Z,-0.05
2023-03-18T01:13:46.358Z,-0.66
2023-03-18T01:16:14.525Z,-0.69
2023-03-18T01:18:42.320Z,-1.09
2023-03-18T01:21:10.307Z,-0.82
2023-03-18T01:23:44.142Z,-0.44
2023-03-18T01:26:12.621Z,-0.81
2023-03-18T01:28:43.492Z,-1.29
2023-03-18T01:31:12.598Z,-1.61
2023-03-18T01:33:42.506Z,-2.17
2023-03-18T01:36:10.655Z,-1.32
2023-03-18T01:38:38.900Z,-1.80
2023-03-18T01:41:12.752Z,-1.70
2023-03-18T01:43:42.748Z,-1.70
2023-03-18T01:46:40.093Z,-1.67
2023-03-18T01:49:14.301Z,-1.35
2023-03-18T01:51:43.497Z,-0.84
2023-03-18T01:54:12.374Z,-0.84
2023-03-18T01:56:40.865Z,-0.96
2023-03-18T01:59:08.798Z,-0.95
2023-03-18T02:01:54.239Z,-0.58
2023-03-18T02:04:25.850Z,-0.78
2023-03-18T02:06:53.609Z,-1.34
2023-03-18T02:09:22.211Z,-1.34
2023-03-18T02:11:50.110Z,-1.46
2023-03-18T02:14:23.696Z,-1.37
2023-03-18T02:17:08.471Z,-1.16
2023-03-18T02:20:11.262Z,-1.88
2023-03-18T02:22:45.244Z,-2.13
2023-03-18T02:25:15.885Z,-2.26
2023-03-18T02:27:45.966Z,-2.38
2023-03-18T02:30:26.026Z,-1.82
2023-03-18T02:32:55.598Z,-1.68
2023-03-18T02:35:23.541Z,-1.63
2023-03-18T02:37:52.889Z,-1.54
2023-03-18T02:40:33.299Z,-1.83
2023-03-18T02:43:18.626Z,-1.25
2023-03-18T02:46:22.090Z,-2.31
2023-03-18T02:48:50.186Z,-2.40
2023-03-18T02:51:18.396Z,-2.46
2023-03-18T02:53:47.134Z,-1.90
2023-03-18T02:56:15.158Z,-2.28
2023-03-18T02:58:45.562Z,-2.19
2023-03-18T03:01:14.726Z,-2.42
2023-03-18T03:03:42.544Z,-2.23
2023-03-18T03:06:11.723Z,-2.60
2023-03-18T03:08:39.438Z,-2.20
2023-03-18T03:11:08.589Z,-2.37
2023-03-18T03:13:39.463Z,-2.66
2023-03-18T03:16:10.730Z,-2.00
2023-03-18T03:18:38.695Z,-2.33
2023-03-18T03:21:06.566Z,-2.66
2023-03-18T03:23:34.610Z,-2.60
2023-03-18T03:26:02.651Z,-2.63
2023-03-18T03:28:30.804Z,-2.47
2023-03-18T03:30:59.384Z,-2.76
2023-03-18T03:33:27.533Z,-2.18
2023-03-18T03:35:58.307Z,-2.02
2023-03-18T03:38:26.364Z,-2.05
2023-03-18T03:40:55.896Z,-1.79
2023-03-18T03:43:23.906Z,-1.86
2023-03-18T03:45:51.640Z,-2.17
2023-03-18T03:48:19.305Z,-2.02
2023-03-18T03:50:47.747Z,-1.67
2023-03-18T03:53:15.762Z,-1.98
2023-03-18T03:55:44.430Z,-1.58
2023-03-18T03:58:12.288Z,-1.80
2023-03-18T04:00:40.200Z,-1.39
2023-03-18T04:03:07.916Z,-1.44
2023-03-18T04:05:35.756Z,-1.40
2023-03-18T04:08:03.794Z,-1.18
2023-03-18T04:10:39.291Z,-1.23
2023-03-18T04:13:10.348Z,-1.05
2023-03-18T04:15:40.438Z,-1.08
2023-03-18T04:18:13.315Z,-1.07
2023-03-18T04:20:41.787Z,-0.90
2023-03-18T04:23:20.899Z,-0.71
2023-03-18T04:25:48.683Z,-0.59
2023-03-18T04:28:17.653Z,-0.56
2023-03-18T04:30:45.380Z,-0.49
2023-03-18T04:33:17.918Z,-0.51
2023-03-18T04:35:45.947Z,-0.41
2023-03-18T04:38:15.417Z,-0.31
2023-03-18T04:40:43.611Z,-0.33
2023-03-18T04:43:11.340Z,-0.28
2023-03-18T04:45:40.388Z,-0.16
2023-03-18T04:48:08.188Z,-0.35
2023-03-18T04:50:40.886Z,-0.30
2023-03-18T04:53:12.909Z,-0.14
2023-03-18T04:55:40.816Z,-0.24
2023-03-18T04:58:10.908Z,-0.39
2023-03-18T05:00:44.028Z,-0.13
2023-03-18T05:03:20.757Z,-0.73
2023-03-18T05:05:49.549Z,-0.60
2023-03-18T05:08:21.361Z,-0.36
2023-03-18T05:10:50.735Z,-0.33
2023-03-18T05:13:19.611Z,-0.55
2023-03-18T05:15:48.832Z,-0.52
2023-03-18T05:18:17.391Z,-1.11
2023-03-18T05:20:48.881Z,-0.76
2023-03-18T05:23:18.597Z,-0.79
2023-03-18T05:25:55.758Z,-0.80
2023-03-18T05:28:27.114Z,-0.36
2023-03-18T05:31:10.625Z,-0.09
2023-03-18T05:33:42.531Z,-0.13
2023-03-18T05:36:11.999Z,0.09
2023-03-18T05:38:49.716Z,-0.10
2023-03-18T05:41:17.633Z,-0.26
2023-03-18T05:43:45.411Z,0.09
2023-03-18T05:46:13.764Z,0.12
2023-03-18T05:49:08.790Z,0.42
2023-03-18T05:51:46.556Z,0.45
2023-03-18T05:54:20.828Z,0.64
2023-03-18T05:56:49.918Z,0.80
2023-03-18T05:59:17.708Z,0.43
2023-03-18T06:01:49.079Z,0.74
2023-03-18T06:04:17.354Z,1.05
2023-03-18T06:06:45.274Z,0.91
2023-03-18T06:09:13.590Z,0.84
2023-03-18T06:11:44.718Z,1.00
2023-03-18T06:14:12.860Z,1.12
2023-03-18T06:16:41.736Z,1.23
2023-03-18T06:19:10.873Z,1.45
2023-03-18T06:21:39.579Z,1.19
2023-03-18T06:24:07.619Z,1.30
2023-03-18T06:26:35.985Z,1.58
2023-03-18T06:29:05.634Z,1.84
2023-03-18T06:31:34.552Z,1.64
2023-03-18T06:34:04.982Z,1.61
2023-03-18T06:36:35.318Z,1.98
2023-03-18T06:39:06.109Z,1.75
2023-03-18T06:41:36.718Z,1.93
2023-03-18T06:44:31.011Z,2.05
2023-03-18T06:47:06.353Z,1.81
2023-03-18T06:49:37.824Z,2.03
2023-03-18T06:52:12.921Z,1.69
2023-03-18T06:54:41.777Z,1.56
2023-03-18T06:57:09.785Z,1.79
2023-03-18T06:59:38.290Z,1.61
2023-03-18T07:02:08.713Z,1.66
2023-03-18T07:04:36.562Z,1.86
2023-03-18T07:07:05.950Z,1.87
2023-03-18T07:09:36.410Z,1.86
2023-03-18T07:12:04.424Z,2.23
2023-03-18T07:14:32.241Z,2.40
2023-03-18T07:17:00.724Z,2.58
2023-03-18T07:19:28.618Z,3.10
2023-03-18T07:21:57.172Z,2.87
2023-03-18T07:24:26.320Z,2.87
2023-03-18T07:26:54.617Z,2.61
2023-03-18T07:29:22.402Z,2.40
2023-03-18T07:31:50.401Z,2.65
2023-03-18T07:34:19.283Z,3.77
2023-03-18T07:36:48.075Z,3.94
2023-03-18T07:39:16.038Z,3.48
2023-03-18T07:41:43.712Z,3.78
2023-03-18T07:44:18.021Z,4.37
2023-03-18T07:46:45.784Z,4.68
2023-03-18T07:49:13.543Z,5.17
2023-03-18T07:51:41.225Z,4.75
2023-03-18T07:54:08.988Z,5.46
2023-03-18T07:56:36.681Z,4.66
2023-03-18T07:59:04.658Z,5.35
2023-03-18T08:01:33.094Z,5.62
2023-03-18T08:04:00.896Z,5.50
2023-03-18T08:06:28.706Z,5.59
2023-03-18T08:08:56.414Z,5.73
2023-03-18T08:11:24.157Z,5.87
2023-03-18T08:13:51.903Z,6.45
2023-03-18T08:16:19.730Z,6.08
2023-03-18T08:18:47.777Z,6.16
2023-03-18T08:21:15.533Z,5.43
2023-03-18T08:23:43.806Z,5.93
2023-03-18T08:26:12.214Z,6.05
2023-03-18T08:28:39.904Z,6.13
2023-03-18T08:31:09.677Z,6.33
2023-03-18T08:33:37.509Z,6.67
2023-03-18T08:36:06.235Z,7.02
2023-03-18T08:38:34.340Z,7.39
2023-03-18T08:41:02.140Z,6.58
2023-03-18T08:43:29.956Z,6.26
2023-03-18T08:45:58.807Z,6.55
2023-03-18T08:48:26.707Z,6.97
2023-03-18T08:50:54.779Z,6.40
2023-03-18T08:53:22.650Z,7.04
2023-03-18T08:55:50.347Z,7.01
2023-03-18T08:58:18.823Z,6.87
2023-03-18T09:00:46.908Z,6.96
2023-03-18T09:03:15.854Z,7.19
2023-03-18T09:05:44.063Z,7.54
2023-03-18T09:08:11.842Z,7.86
2023-03-18T09:10:39.608Z,8.39
2023-03-18T09:13:08.291Z,8.59
2023-03-18T09:15:36.033Z,8.99
2023-03-18T09:18:11.633Z,7.44
2023-03-18T09:20:41.056Z,7.90
2023-03-18T09:23:09.855Z,8.18
2023-03-18T09:25:37.631Z,7.64
2023-03-18T09:28:05.532Z,7.51
2023-03-18T09:30:33.791Z,7.98
2023-03-18T09:33:01.882Z,8.39
2023-03-18T09:35:29.704Z,7.18
2023-03-18T09:37:57.434Z,7.67
2023-03-18T09:40:27.830Z,7.74
2023-03-18T09:43:05.721Z,8.01
2023-03-18T09:45:57.143Z,7.79
2023-03-18T09:48:38.182Z,8.06
2023-03-18T09:51:21.766Z,7.70
2023-03-18T09:53:58.620Z,8.17
2023-03-18T09:56:28.939Z,7.27
2023-03-18T09:59:04.679Z,7.43
2023-03-18T10:01:34.781Z,7.20
2023-03-18T10:04:20.292Z,6.85
2023-03-18T10:06:48.367Z,7.44
2023-03-18T10:09:20.917Z,7.54
2023-03-18T10:11:50.200Z,7.66
2023-03-18T10:14:26.808Z,7.30
2023-03-18T10:17:11.018Z,7.34
2023-03-18T10:19:38.857Z,6.40
2023-03-18T10:22:16.020Z,6.38
2023-03-18T10:25:03.497Z,6.61
2023-03-18T10:27:54.650Z,5.87
2023-03-18T10:30:57.550Z,6.01
2023-03-18T10:33:55.909Z,6.83
2023-03-18T10:36:42.660Z,6.36
2023-03-18T10:39:13.606Z,7.02
2023-03-18T10:41:43.417Z,6.75
2023-03-18T10:44:32.790Z,6.33
2023-03-18T10:47:29.666Z,6.98
2023-03-18T10:50:23.143Z,6.77
2023-03-18T10:53:19.559Z,5.87
2023-03-18T10:56:08.848Z,6.90
2023-03-18T10:58:38.247Z,7.66
2023-03-18T11:01:10.412Z,6.78
2023-03-18T11:03:48.751Z,6.12
2023-03-18T11:06:25.418Z,6.58
2023-03-18T11:09:08.570Z,7.13
2023-03-18T11:11:39.354Z,7.26
2023-03-18T11:14:08.012Z,7.41
2023-03-18T11:16:51.597Z,7.20
2023-03-18T11:19:41.835Z,6.97
2023-03-18T11:22:10.211Z,6.85
2023-03-18T11:24:44.872Z,7.31
2023-03-18T11:27:18.352Z,6.95
2023-03-18T11:29:50.954Z,6.75
2023-03-18T11:32:25.853Z,6.97
2023-03-18T11:35:01.683Z,7.07
2023-03-18T11:37:37.392Z,6.73
2023-03-18T11:40:14.074Z,6.86
2023-03-18T11:42:41.989Z,6.95
2023-03-18T11:45:27.783Z,7.41
2023-03-18T11:47:56.029Z,7.15
2023-03-18T11:50:26.119Z,6.38
2023-03-18T11:53:24.350Z,6.78
2023-03-18T11:56:06.026Z,7.04
2023-03-18T11:59:07.168Z,6.96
2023-03-18T12:01:54.150Z,7.81
2023-03-18T12:04:27.814Z,7.48
2023-03-18T12:07:23.580Z,6.88
2023-03-18T12:09:56.935Z,6.70
2023-03-18T12:12:43.934Z,6.97
2023-03-18T12:15:33.569Z,7.29
2023-03-18T12:18:05.660Z,7.22
2023-03-18T12:20:51.441Z,7.71
2023-03-18T12:23:29.802Z,7.19
2023-03-18T12:26:08.524Z,7.61
2023-03-18T12:28:46.657Z,8.10
2023-03-18T12:31:48.867Z,7.30
2023-03-18T12:34:34.245Z,7.21
2023-03-18T12:37:28.971Z,7.48
2023-03-18T12:40:17.913Z,7.59
2023-03-18T12:43:26.173Z,7.59
2023-03-18T12:46:17.434Z,6.95
2023-03-18T12:48:52.607Z,6.92
2023-03-18T12:51:26.043Z,7.20
2023-03-18T12:53:55.690Z,7.13
2023-03-18T12:56:25.694Z,7.47
2023-03-18T12:59:02.356Z,7.29
2023-03-18T13:01:48.176Z,6.97
2023-03-18T13:04:20.062Z,7.51
2023-03-18T13:07:05.753Z,7.93
2023-03-18T13:09:39.561Z,8.47
2023-03-18T13:12:31.422Z,7.39
2023-03-18T13:15:20.679Z,7.37
2023-03-18T13:17:49.278Z,8.11
2023-03-18T13:20:37.718Z,8.44
2023-03-18T13:23:11.298Z,8.24
2023-03-18T13:25:57.016Z,7.41
2023-03-18T13:28:53.767Z,7.49
2023-03-18T13:31:30.472Z,8.57
2023-03-18T13:34:17.627Z,8.26
2023-03-18T13:37:10.089Z,8.45
2023-03-18T13:39:56.303Z,8.18
2023-03-18T13:42:29.918Z,8.37
2023-03-18T13:45:22.362Z,7.81
2023-03-18T13:48:10.658Z,7.98
2023-03-18T13:50:43.266Z,7.51
2023-03-18T13:53:29.213Z,8.09
2023-03-18T13:55:57.748Z,7.58
2023-03-18T13:58:30.398Z,8.31
2023-03-18T14:01:01.087Z,7.80
2023-03-18T14:03:44.307Z,7.81
2023-03-18T14:06:36.808Z,8.37
2023-03-18T14:09:31.598Z,7.26
2023-03-18T14:12:04.730Z,7.41
2023-03-18T14:14:51.390Z,7.52
2023-03-18T14:17:23.613Z,8.10
2023-03-18T14:19:55.567Z,8.12
2023-03-18T14:22:36.553Z,7.73
2023-03-18T14:25:12.320Z,7.51
2023-03-18T14:27:54.705Z,7.91
2023-03-18T14:30:34.922Z,7.39
2023-03-18T14:33:18.160Z,8.46
2023-03-18T14:35:53.380Z,7.24
2023-03-18T14:38:23.345Z,6.99
2023-03-18T14:40:53.812Z,6.99
2023-03-18T14:43:34.573Z,6.64
2023-03-18T14:46:09.057Z,7.03
2023-03-18T14:48:36.904Z,6.75
2023-03-18T14:51:13.260Z,6.99
2023-03-18T14:54:03.900Z,7.08
2023-03-18T14:56:38.693Z,6.81
2023-03-18T14:59:07.866Z,7.07
2023-03-18T15:01:40.138Z,6.42
2023-03-18T15:04:08.408Z,5.98
2023-03-18T15:06:36.095Z,6.33
2023-03-18T15:09:08.432Z,6.11
2023-03-18T15:11:44.534Z,6.16
2023-03-18T15:14:13.320Z,6.30
2023-03-18T15:16:41.032Z,6.06
2023-03-18T15:19:11.449Z,6.24
2023-03-18T15:21:39.125Z,6.49
2023-03-18T15:24:07.657Z,6.02
2023-03-18T15:26:37.777Z,6.13
2023-03-18T15:29:33.276Z,6.36
2023-03-18T15:32:46.026Z,6.46
2023-03-18T15:35:15.092Z,6.37
2023-03-18T15:37:43.916Z,6.02
2023-03-18T15:40:24.027Z,6.49
2023-03-18T15:42:55.719Z,6.41
2023-03-18T15:45:27.137Z,6.46
2023-03-18T15:47:55.188Z,5.86
2023-03-18T15:50:28.715Z,5.63
2023-03-18T15:53:24.900Z,5.87
2023-03-18T15:55:55.422Z,5.08
2023-03-18T15:58:28.477Z,4.82
2023-03-18T16:00:56.507Z,5.10
2023-03-18T16:03:26.377Z,5.39
2023-03-18T16:05:54.320Z,5.32
2023-03-18T16:08:22.781Z,5.58
2023-03-18T16:10:52.995Z,4.96
2023-03-18T16:13:25.260Z,4.72
2023-03-18T16:15:53.286Z,5.91
2023-03-18T16:18:21.329Z,6.78
2023-03-18T16:20:49.372Z,6.54
2023-03-18T16:23:17.537Z,6.15
2023-03-18T16:25:49.657Z,5.25
2023-03-18T16:28:22.432Z,6.10
2023-03-18T16:30:52.419Z,6.42
2023-03-18T16:33:20.590Z,6.90
2023-03-18T16:35:56.747Z,6.48
2023-03-18T16:38:25.604Z,6.86
2023-03-18T16:40:54.838Z,6.99
2023-03-18T16:43:24.204Z,5.69
2023-03-18T16:45:51.947Z,6.46
2023-03-18T16:48:21.432Z,6.79
2023-03-18T16:50:50.621Z,6.87
2023-03-18T16:53:18.338Z,6.77
2023-03-18T16:55:47.169Z,6.20
2023-03-18T16:58:17.874Z,6.76
2023-03-18T17:00:49.760Z,6.85
2023-03-18T17:03:18.359Z,6.24
2023-03-18T17:05:48.729Z,6.50
2023-03-18T17:08:17.770Z,6.53
2023-03-18T17:10:45.744Z,6.50
2023-03-18T17:13:23.063Z,5.86
2023-03-18T17:15:51.049Z,5.84
2023-03-18T17:18:20.660Z,6.13
2023-03-18T17:20:48.696Z,6.30
2023-03-18T17:23:17.022Z,5.99
2023-03-18T17:25:55.359Z,6.28
2023-03-18T17:28:43.970Z,5.88
2023-03-18T17:31:12.396Z,5.75
2023-03-18T17:33:40.276Z,5.87
2023-03-18T17:36:08.251Z,5.66
2023-03-18T17:38:36.328Z,5.84
2023-03-18T17:41:07.454Z,5.43
2023-03-18T17:43:35.813Z,5.29
2023-03-18T17:46:04.049Z,5.55
2023-03-18T17:48:32.745Z,5.22
2023-03-18T17:51:08.920Z,3.65
2023-03-18T17:53:38.552Z,4.80
2023-03-18T17:56:08.457Z,4.87
2023-03-18T17:58:36.188Z,4.49
2023-03-18T18:01:06.414Z,4.63
2023-03-18T18:03:35.351Z,4.11
2023-03-18T18:06:03.626Z,4.90
2023-03-18T18:08:31.788Z,4.52
2023-03-18T18:11:32.225Z,4.27
2023-03-18T18:14:25.042Z,4.49
2023-03-18T18:16:53.741Z,4.69
2023-03-18T18:19:22.816Z,4.67
2023-03-18T18:21:50.732Z,4.57
2023-03-18T18:24:29.522Z,4.48
2023-03-18T18:26:57.297Z,4.86
2023-03-18T18:29:26.511Z,5.01
2023-03-18T18:31:54.285Z,4.73
2023-03-18T18:34:21.978Z,4.46
2023-03-18T18:36:50.754Z,4.26
2023-03-18T18:39:19.173Z,4.48
2023-03-18T18:41:47.022Z,4.74
2023-03-18T18:44:14.776Z,4.40
2023-03-18T18:46:42.682Z,4.41
2023-03-18T18:49:21.942Z,4.71
2023-03-18T18:51:50.776Z,3.25
2023-03-18T18:54:18.510Z,3.49
2023-03-18T18:56:47.123Z,4.00
2023-03-18T18:59:28.783Z,4.09
2023-03-18T19:01:56.855Z,4.38
2023-03-18T19:04:24.650Z,4.53
2023-03-18T19:06:52.717Z,4.26
2023-03-18T19:09:24.620Z,4.51
2023-03-18T19:11:53.616Z,4.52
2023-03-18T19:14:28.059Z,4.53
2023-03-18T19:16:58.929Z,4.33
2023-03-18T19:19:31.301Z,4.54
2023-03-18T19:21:59.143Z,4.67
2023-03-18T19:24:31.522Z,4.05
2023-03-18T19:27:01.595Z,3.56
2023-03-18T19:29:29.423Z,4.15
2023-03-18T19:31:57.331Z,3.84
2023-03-18T19:34:25.221Z,3.82
2023-03-18T19:36:53.589Z,3.86
2023-03-18T19:39:22.093Z,3.97
2023-03-18T19:41:51.142Z,3.88
2023-03-18T19:44:20.477Z,4.12
2023-03-18T19:46:48.902Z,3.74
2023-03-18T19:49:38.065Z,3.95
2023-03-18T19:52:16.626Z,3.98
2023-03-18T19:54:44.652Z,3.82
2023-03-18T19:57:40.247Z,3.77
2023-03-18T20:00:19.004Z,3.84
2023-03-18T20:02:49.176Z,2.82
2023-03-18T20:05:21.552Z,2.75
2023-03-18T20:07:50.522Z,2.55
2023-03-18T20:10:18.688Z,2.84
2023-03-18T20:12:47.797Z,3.19
2023-03-18T20:15:17.546Z,3.48
2023-03-18T20:17:46.590Z,2.69
2023-03-18T20:20:22.478Z,2.35
2023-03-18T20:23:03.593Z,2.78
2023-03-18T20:25:41.148Z,2.64
2023-03-18T20:28:17.332Z,3.09
2023-03-18T20:30:46.097Z,3.07
2023-03-18T20:33:14.277Z,2.41
2023-03-18T20:35:43.281Z,2.22
2023-03-18T20:38:26.736Z,2.00
2023-03-18T20:40:54.569Z,2.15
2023-03-18T20:43:23.876Z,1.79
2023-03-18T20:45:51.998Z,2.57
2023-03-18T20:48:20.406Z,2.65
2023-03-18T20:50:48.166Z,2.17
2023-03-18T20:53:20.847Z,1.97
2023-03-18T20:55:49.572Z,1.61
2023-03-18T20:58:24.342Z,1.59
2023-03-18T21:00:52.645Z,1.83
2023-03-18T21:03:25.661Z,2.12
2023-03-18T21:05:55.806Z,1.71
2023-03-18T21:08:23.918Z,1.43
2023-03-18T21:10:52.415Z,1.34
2023-03-18T21:13:22.978Z,1.35
2023-03-18T21:15:50.812Z,1.16
2023-03-18T21:18:18.549Z,1.79
2023-03-18T21:20:46.655Z,1.42
2023-03-18T21:23:28.227Z,1.46
2023-03-18T21:25:56.210Z,1.06
2023-03-18T21:28:25.560Z,1.12
2023-03-18T21:30:56.135Z,1.35
2023-03-18T21:33:27.292Z,1.48
2023-03-18T21:35:57.987Z,1.17
2023-03-18T21:38:30.302Z,1.20
2023-03-18T21:40:58.376Z,1.35
2023-03-18T21:43:33.601Z,1.45
2023-03-18T21:46:01.833Z,0.71
2023-03-18T21:48:29.658Z,1.46
2023-03-18T21:50:57.487Z,1.63
2023-03-18T21:53:25.335Z,1.70
2023-03-18T21:55:53.141Z,2.06
2023-03-18T21:58:25.535Z,2.10
2023-03-18T22:00:57.764Z,1.95
2023-03-18T22:03:27.107Z,1.97
2023-03-18T22:05:55.802Z,2.19
2023-03-18T22:08:23.635Z,2.13
2023-03-18T22:10:51.353Z,2.07
2023-03-18T22:13:23.550Z,1.35
2023-03-18T22:15:52.285Z,1.41
2023-03-18T22:18:20.222Z,1.22
2023-03-18T22:20:49.162Z,1.25
2023-03-18T22:23:28.533Z,0.35
2023-03-18T22:25:56.864Z,1.07
2023-03-18T22:28:25.417Z,1.40
2023-03-18T22:30:55.030Z,1.73
2023-03-18T22:33:30.286Z,1.37
2023-03-18T22:35:58.072Z,1.52
2023-03-18T22:38:26.184Z,1.73
2023-03-18T22:40:55.901Z,1.31
2023-03-18T22:43:33.543Z,0.46
2023-03-18T22:46:03.174Z,0.30
2023-03-18T22:48:30.948Z,0.01
2023-03-18T22:51:01.793Z,-0.11
2023-03-18T22:53:34.778Z,-0.62
2023-03-18T22:56:10.739Z,0.04
2023-03-18T22:58:38.638Z,-0.15
2023-03-18T23:01:06.439Z,0.39
2023-03-18T23:03:35.118Z,0.87
2023-03-18T23:06:03.321Z,0.69
2023-03-18T23:08:31.257Z,0.85
2023-03-18T23:11:02.115Z,0.97
2023-03-18T23:13:38.882Z,1.39
2023-03-18T23:16:08.627Z,1.33
2023-03-18T23:18:37.528Z,1.54
2023-03-18T23:21:08.897Z,1.37
2023-03-18T23:23:37.358Z,1.45
2023-03-18T23:26:05.196Z,1.39
2023-03-18T23:28:43.658Z,0.44
2023-03-18T23:31:12.868Z,0.75
2023-03-18T23:33:41.003Z,0.52
2023-03-18T23:36:09.197Z,0.58
2023-03-18T23:38:37.924Z,0.50
2023-03-18T23:41:06.261Z,0.53
2023-03-18T23:43:34.735Z,0.77
2023-03-18T23:46:03.941Z,0.71
2023-03-18T23:48:32.317Z,0.48
2023-03-18T23:51:00.892Z,0.96
2023-03-18T23:53:29.370Z,1.01
2023-03-18T23:55:57.269Z,0.51
2023-03-18T23:58:25.465Z,0.52
